Time;durP1;ratioP1;P1;durP2;ratioP2;P2;SDS_P1;SDS_P2;PMS_P1;PMS_P2;Temp;Humidity;BMP_temperature;BMP_pressure;BME280_temperature;BME280_humidity;BME280_pressure;Samples;Min_cycle;Max_cycle;Signal;HPM_P1;HPM_P2
2023/12/16 00:09:02;;;;;;;0.10;0.00;;;-0.60;95.20;;;;;;21077121;28;20028;-61
2023/12/16 00:19:05;;;;;;;0.10;0.00;;;-0.70;95.00;;;;;;21053833;28;20036;-59
2023/12/16 00:29:07;;;;;;;0.00;0.00;;;-0.90;95.40;;;;;;21063870;28;20043;-59
2023/12/16 00:39:09;;;;;;;0.43;0.20;;;-1.10;96.30;;;;;;21078720;28;20032;-56
2023/12/16 00:49:11;;;;;;;0.00;0.00;;;-1.30;96.90;;;;;;21070568;28;20062;-57
2023/12/16 00:59:13;;;;;;;0.55;0.00;;;-1.20;96.10;;;;;;21061491;28;20040;-59
2023/12/16 01:09:15;;;;;;;0.00;0.00;;;-1.30;96.50;;;;;;21075360;28;20042;-50
2023/12/16 01:19:16;;;;;;;0.00;0.00;;;-1.60;97.70;;;;;;21065194;28;20047;-50
2023/12/16 01:29:21;;;;;;;0.10;0.00;;;-1.90;97.40;;;;;;21040495;28;20040;-51
2023/12/16 01:39:23;;;;;;;0.00;0.00;;;-1.80;98.10;;;;;;20989428;28;20101;-61
2023/12/16 01:49:25;;;;;;;1.95;0.63;;;-1.80;98.20;;;;;;21039973;28;20040;-50
2023/12/16 01:59:27;;;;;;;0.10;0.00;;;-1.90;98.40;;;;;;21056473;28;20066;-59
2023/12/16 02:09:29;;;;;;;0.10;0.00;;;-2.10;99.50;;;;;;21063709;28;20036;-49
2023/12/16 02:19:33;;;;;;;0.08;0.00;;;-2.20;98.90;;;;;;21043485;28;20047;-52
2023/12/16 02:29:35;;;;;;;0.20;0.00;;;-2.10;99.00;;;;;;21054901;28;20028;-59
2023/12/16 02:39:37;;;;;;;0.10;0.10;;;-1.90;98.30;;;;;;21069713;28;20036;-60
2023/12/16 02:49:39;;;;;;;0.00;0.00;;;-1.70;98.10;;;;;;21062028;28;20032;-61
2023/12/16 02:59:41;;;;;;;0.10;0.00;;;-2.00;99.70;;;;;;21053171;28;20077;-54
2023/12/16 03:09:43;;;;;;;0.57;0.00;;;-2.30;99.90;;;;;;21068192;28;20040;-50
2023/12/16 03:19:44;;;;;;;1.38;0.00;;;-2.30;99.30;;;;;;21058702;28;20554;-58
2023/12/16 03:29:47;;;;;;;0.25;0.00;;;-2.20;99.30;;;;;;21057123;28;20047;-50
2023/12/16 03:39:48;;;;;;;0.45;0.08;;;-2.00;98.90;;;;;;21044111;28;20043;-60
2023/12/16 03:49:50;;;;;;;0.20;0.10;;;-2.00;99.90;;;;;;21017895;28;20040;-51
2023/12/16 03:59:52;;;;;;;0.13;0.00;;;-2.30;99.90;;;;;;21001002;28;20028;-57
2023/12/16 04:09:54;;;;;;;0.38;0.00;;;-2.40;99.90;;;;;;21000266;28;20036;-61
2023/12/16 04:19:56;;;;;;;0.10;0.00;;;-2.40;99.90;;;;;;20992309;28;20048;-60
2023/12/16 04:29:57;;;;;;;0.73;0.00;;;-2.20;99.90;;;;;;21003358;28;20032;-60
2023/12/16 04:39:59;;;;;;;0.13;0.00;;;-2.30;99.90;;;;;;21001661;28;20040;-56
2023/12/16 04:50:01;;;;;;;1.30;0.00;;;-2.10;99.30;;;;;;21006003;28;20090;-51
2023/12/16 05:00:04;;;;;;;2.38;0.10;;;-1.90;99.30;;;;;;21000445;28;20091;-49
2023/12/16 05:10:10;;;;;;;0.17;0.00;;;-1.70;98.20;;;;;;21010842;28;20097;-60
2023/12/16 05:20:12;;;;;;;0.13;0.00;;;-1.20;97.40;;;;;;21003424;28;20406;-59
2023/12/16 05:30:14;;;;;;;0.00;0.00;;;-1.30;97.20;;;;;;20907472;28;20052;-58
2023/12/16 05:40:16;;;;;;;0.30;0.00;;;-1.40;97.40;;;;;;20911571;28;20560;-52
2023/12/16 05:50:18;;;;;;;0.25;0.10;;;-1.90;99.20;;;;;;20896379;28;20110;-49
2023/12/16 06:00:20;;;;;;;0.15;0.10;;;-2.20;99.90;;;;;;20899484;28;20366;-52
2023/12/16 06:10:22;;;;;;;0.00;0.00;;;-2.50;99.70;;;;;;20891094;28;20083;-55
2023/12/16 06:20:24;;;;;;;0.13;0.10;;;-2.70;99.90;;;;;;20918426;28;20551;-60
2023/12/16 06:30:25;;;;;;;0.30;0.10;;;-3.00;99.90;;;;;;21005817;28;20028;-59
2023/12/16 06:40:27;;;;;;;0.25;0.03;;;-3.20;99.90;;;;;;20993515;28;20465;-49
2023/12/16 06:50:29;;;;;;;0.30;0.10;;;-3.20;99.90;;;;;;20974890;28;20551;-52
2023/12/16 07:00:30;;;;;;;1.75;0.10;;;-3.20;99.90;;;;;;20992798;28;20097;-59
2023/12/16 07:10:32;;;;;;;0.32;0.17;;;-3.10;99.90;;;;;;20983067;28;20555;-50
2023/12/16 07:20:34;;;;;;;0.57;0.05;;;-3.10;99.90;;;;;;20976515;28;20088;-58
2023/12/16 07:30:36;;;;;;;0.73;0.35;;;-3.00;99.90;;;;;;21006151;28;20409;-61
2023/12/16 07:40:38;;;;;;;0.90;0.20;;;-2.80;99.90;;;;;;20982152;28;20074;-51
2023/12/16 07:50:40;;;;;;;0.98;0.20;;;-2.60;99.90;;;;;;20980033;28;20032;-54
2023/12/16 08:00:42;;;;;;;1.60;0.10;;;-2.10;99.90;;;;;;20993789;28;20478;-51
2023/12/16 08:10:44;;;;;;;0.85;0.10;;;-1.20;99.90;;;;;;20971813;28;20067;-51
2023/12/16 08:20:46;;;;;;;0.08;0.00;;;-0.40;99.90;;;;;;20955247;28;20045;-61
2023/12/16 08:30:49;;;;;;;1.35;0.13;;;0.40;99.90;;;;;;20896642;28;20044;-60
2023/12/16 08:40:53;;;;;;;0.30;0.17;;;1.40;99.90;;;;;;20926513;28;20029;-61
2023/12/16 08:50:58;;;;;;;0.30;0.20;;;2.20;99.40;;;;;;20923302;28;20083;-61
2023/12/16 09:01:00;;;;;;;1.75;0.20;;;2.70;99.90;;;;;;20927589;28;20070;-61
2023/12/16 09:11:02;;;;;;;1.90;0.20;;;3.30;99.90;;;;;;20913660;28;20083;-54
2023/12/16 09:21:04;;;;;;;0.60;0.20;;;3.80;98.30;;;;;;20925881;28;20056;-53
2023/12/16 09:31:06;;;;;;;1.02;0.20;;;4.10;98.30;;;;;;20991247;28;20398;-61
2023/12/16 09:41:28;;;;;;;1.63;0.30;;;4.40;97.80;;;;;;20988518;28;20033;-56
2023/12/16 09:51:30;;;;;;;1.23;0.20;;;4.40;99.60;;;;;;20993979;28;20358;-61
2023/12/16 10:01:32;;;;;;;1.40;0.30;;;4.70;99.90;;;;;;20989799;28;20029;-58
2023/12/16 10:11:41;;;;;;;1.42;0.30;;;5.20;98.70;;;;;;20992061;28;20040;-51
2023/12/16 10:21:43;;;;;;;2.83;0.50;;;5.30;98.30;;;;;;20989522;28;20067;-61
2023/12/16 10:31:44;;;;;;;1.60;0.45;;;5.40;98.80;;;;;;20989051;28;20033;-61
2023/12/16 10:41:46;;;;;;;2.78;0.43;;;6.00;99.00;;;;;;20991001;28;20039;-54
2023/12/16 10:51:52;;;;;;;1.88;0.47;;;6.30;98.10;;;;;;20992449;28;20040;-57
2023/12/16 11:01:57;;;;;;;2.75;0.50;;;6.40;98.70;;;;;;20987963;28;20021;-51
2023/12/16 11:12:01;;;;;;;0.88;0.50;;;6.50;99.90;;;;;;20989298;28;20051;-53
2023/12/16 11:22:09;;;;;;;4.80;0.70;;;6.30;98.90;;;;;;20980717;28;20044;-57
2023/12/16 11:32:11;;;;;;;2.38;0.70;;;6.20;99.90;;;;;;20981194;28;20090;-61
2023/12/16 11:42:35;;;;;;;3.08;0.80;;;6.30;99.70;;;;;;20983687;28;20162;-49
2023/12/16 11:52:37;;;;;;;2.78;0.70;;;6.30;99.90;;;;;;20989423;28;20040;-53
2023/12/16 12:02:39;;;;;;;5.15;0.90;;;6.50;99.90;;;;;;20995912;28;20066;-52
2023/12/16 12:12:41;;;;;;;3.03;0.95;;;7.40;99.90;;;;;;20996823;28;20039;-59
2023/12/16 12:22:43;;;;;;;3.33;0.98;;;8.10;99.30;;;;;;21000350;28;20036;-62
2023/12/16 12:32:45;;;;;;;7.20;1.20;;;7.50;99.70;;;;;;20969278;28;20094;-53
2023/12/16 12:43:05;;;;;;;3.10;1.20;;;7.20;99.90;;;;;;20989185;28;20571;-53
2023/12/16 12:53:16;;;;;;;;;;;6.30;99.90;;;;;;20999555;28;20478;-51
2023/12/16 13:03:18;;;;;;;2.23;1.37;;;5.30;99.90;;;;;;20993539;28;19908;-63
2023/12/16 13:13:20;;;;;;;5.93;1.88;;;4.60;99.90;;;;;;20988112;28;20032;-52
2023/12/16 13:23:25;;;;;;;3.60;1.58;;;4.00;99.90;;;;;;20998624;28;20543;-59
2023/12/16 13:33:28;;;;;;;4.63;2.00;;;3.00;99.90;;;;;;20997880;28;20174;-57
2023/12/16 13:43:29;;;;;;;6.68;2.00;;;2.60;99.90;;;;;;20991651;28;20043;-61
2023/12/16 13:53:31;;;;;;;9.55;2.63;;;2.10;99.90;;;;;;20984209;28;20040;-52
2023/12/16 14:03:33;;;;;;;3.72;1.90;;;2.00;99.90;;;;;;20983035;28;20033;-52
2023/12/16 14:13:38;;;;;;;4.63;1.98;;;1.80;99.90;;;;;;20980007;28;20041;-62
2023/12/16 14:23:40;;;;;;;8.82;2.63;;;1.70;99.90;;;;;;20982179;28;20041;-62
2023/12/16 14:33:41;;;;;;;5.50;1.88;;;1.70;99.90;;;;;;20986035;28;20055;-62
2023/12/16 14:43:43;;;;;;;4.68;2.25;;;1.40;99.90;;;;;;20986052;28;20485;-51
2023/12/16 14:53:45;;;;;;;5.85;2.75;;;1.30;99.90;;;;;;20988278;28;20032;-62
2023/12/16 15:03:47;;;;;;;4.28;2.00;;;0.90;99.90;;;;;;20987462;28;20097;-61
2023/12/16 15:13:49;;;;;;;7.05;1.90;;;0.40;99.90;;;;;;20975272;28;20028;-57
2023/12/16 15:23:51;;;;;;;6.43;2.35;;;-0.10;99.90;;;;;;20962847;28;20379;-58
2023/12/16 15:33:53;;;;;;;7.50;2.80;;;-0.40;99.90;;;;;;20966623;28;20110;-55
2023/12/16 15:43:54;;;;;;;6.68;3.13;;;-0.80;99.90;;;;;;20980865;28;20028;-59
2023/12/16 15:53:56;;;;;;;6.72;3.40;;;-1.20;99.90;;;;;;20973598;28;20045;-60
2023/12/16 16:03:58;;;;;;;10.75;5.65;;;-1.30;99.90;;;;;;20992242;28;20081;-61
2023/12/16 16:14:00;;;;;;;12.32;5.20;;;-1.50;99.90;;;;;;21000325;28;20071;-59
2023/12/16 16:24:03;;;;;;;7.68;3.22;;;-1.50;99.90;;;;;;20965898;28;20071;-61
2023/12/16 16:34:05;;;;;;;4.25;2.33;;;-1.50;99.90;;;;;;21052890;28;20032;-61
2023/12/16 16:44:07;;;;;;;4.38;1.90;;;-1.40;99.90;;;;;;21023382;28;20032;-52
2023/12/16 16:54:13;;;;;;;7.20;1.60;;;-1.50;99.90;;;;;;21079055;28;20085;-61
2023/12/16 17:04:14;;;;;;;1.98;0.85;;;-1.50;99.90;;;;;;21070085;28;20036;-60
2023/12/16 17:14:16;;;;;;;2.45;0.77;;;-1.40;99.90;;;;;;21020483;28;20503;-56
2023/12/16 17:24:18;;;;;;;4.50;1.08;;;-1.40;99.90;;;;;;21028330;28;20064;-60
2023/12/16 17:34:21;;;;;;;1.73;0.75;;;-1.50;99.90;;;;;;20983857;28;20036;-60
2023/12/16 17:44:23;;;;;;;2.92;0.70;;;-1.70;99.90;;;;;;20966354;28;20036;-49
2023/12/16 17:54:25;;;;;;;1.30;0.70;;;-1.70;99.90;;;;;;20989850;28;20388;-60
2023/12/16 18:04:26;;;;;;;2.90;1.35;;;-1.50;99.90;;;;;;20981375;28;20033;-61
2023/12/16 18:14:33;;;;;;;2.25;0.88;;;-1.50;99.90;;;;;;20970250;28;20044;-61
2023/12/16 18:24:35;;;;;;;7.20;2.55;;;-1.50;99.90;;;;;;21002364;28;20036;-58
2023/12/16 18:34:36;;;;;;;2.53;1.10;;;-1.60;99.90;;;;;;20991407;28;20032;-61
2023/12/16 18:44:40;;;;;;;3.83;1.90;;;-1.70;99.90;;;;;;21003269;28;20036;-61
2023/12/16 18:54:42;;;;;;;3.58;1.65;;;-1.80;99.90;;;;;;21052017;28;20062;-61
2023/12/16 19:04:44;;;;;;;4.88;1.20;;;-1.80;99.90;;;;;;21059596;28;20047;-47
2023/12/16 19:14:46;;;;;;;1.88;0.90;;;-1.80;99.90;;;;;;21006063;28;20028;-61
2023/12/16 19:24:50;;;;;;;1.95;0.80;;;-1.70;99.90;;;;;;21069352;28;20044;-61
2023/12/16 19:34:52;;;;;;;2.95;1.13;;;-1.70;99.90;;;;;;21060468;28;20047;-56
2023/12/16 19:44:54;;;;;;;2.40;0.82;;;-1.70;99.90;;;;;;21012778;28;20036;-62
2023/12/16 19:54:56;;;;;;;2.60;0.57;;;-1.80;99.90;;;;;;21067869;28;20028;-51
2023/12/16 20:04:58;;;;;;;1.23;0.25;;;-1.90;99.90;;;;;;21019461;28;20035;-61
2023/12/16 20:15:05;;;;;;;0.50;0.20;;;-1.90;99.90;;;;;;21006153;28;20031;-52
2023/12/16 20:25:08;;;;;;;2.53;1.00;;;-1.90;99.90;;;;;;21062877;28;20052;-52
2023/12/16 20:35:10;;;;;;;0.65;0.22;;;-1.90;99.90;;;;;;20975432;28;20564;-53
2023/12/16 20:45:12;;;;;;;2.00;0.30;;;-1.90;99.90;;;;;;21003837;28;20039;-62
2023/12/16 20:55:15;;;;;;;10.85;5.22;;;-2.10;99.90;;;;;;21053137;28;20037;-62
2023/12/16 21:05:17;;;;;;;0.70;0.40;;;-1.90;99.90;;;;;;21063469;28;20036;-61
2023/12/16 21:15:19;;;;;;;1.90;0.63;;;-1.90;99.90;;;;;;21022199;28;20040;-51
2023/12/16 21:25:21;;;;;;;1.02;0.40;;;-1.90;99.90;;;;;;21032919;28;20048;-62
2023/12/16 21:35:22;;;;;;;1.00;0.30;;;-1.90;99.90;;;;;;21051242;28;20036;-61
2023/12/16 21:45:24;;;;;;;0.60;0.30;;;-1.90;99.90;;;;;;21029307;28;20093;-52
2023/12/16 21:55:28;;;;;;;1.15;0.20;;;-1.90;99.90;;;;;;20989603;28;20094;-52
2023/12/16 22:05:29;;;;;;;0.55;0.22;;;-2.00;99.90;;;;;;21029448;28;20028;-62
2023/12/16 22:15:31;;;;;;;0.32;0.10;;;-2.10;99.90;;;;;;21009277;28;20047;-61
2023/12/16 22:25:33;;;;;;;0.88;0.25;;;-2.00;99.90;;;;;;21010471;28;20515;-49
2023/12/16 22:35:35;;;;;;;0.82;0.28;;;-2.10;99.90;;;;;;21066104;28;20028;-57
2023/12/16 22:45:37;;;;;;;1.77;0.52;;;-2.20;99.90;;;;;;21045418;28;20035;-56
2023/12/16 22:55:38;;;;;;;1.80;0.70;;;-2.40;99.90;;;;;;21065670;28;20082;-61
2023/12/16 23:05:42;;;;;;;4.40;0.50;;;-2.40;99.90;;;;;;21065680;28;20388;-52
2023/12/16 23:15:44;;;;;;;2.65;0.30;;;-2.40;99.90;;;;;;21032006;28;20427;-62
2023/12/16 23:25:46;;;;;;;1.20;0.50;;;-2.40;99.90;;;;;;21063831;28;20041;-62
2023/12/16 23:35:48;;;;;;;1.48;0.55;;;-2.20;99.90;;;;;;21065534;28;20126;-62
2023/12/16 23:45:49;;;;;;;1.05;0.50;;;-2.10;99.90;;;;;;21055182;28;20040;-62
2023/12/16 23:55:51;;;;;;;1.35;0.60;;;-2.00;99.90;;;;;;21077814;28;20090;-56
